Kechi, Kansas
Current Conditions -  °F | °C
As of 3:54 AM on Friday 19 Dec 2014 (Local Time) from KAAO Reporting Station
Haze Haze  
Wind Chill: 29°   Ceiling: 200
Heat Index: 29°   Visibility: 5mi
Dew Point: 28°   Wind: 3mph
Humidity: 96%   Direction: 20°NNE
Pressure: 30.22"   Gusts: NA
Location:  37.8°N, 97.28°W
Report Text: KAAO 190954Z AUTO 02003KT 5SM BR OVC002 M02/M02 A3022 RMK AO2 SLP247 T10171022
Loading
Personal Weather Stations






























Interactive Weather Map New forecast layout! Learn more

10-Day Weather Forecast

Advertisements
Track Severe Weather on mobile